Detalii statie INDEPENDENTA [00001985]

Toti senzorii

Date Temperatura solului [C]Precipitatii [mm]Voltaj baterie [mV]Leaf Wetness [Min]HC Air temperature [C]HC Relative humidity [%]Punctul de roua [C]
medieminmaxsumaultimatimpmedieminmaxmediemediemin
2020-06-02 07:00:00 0 6826 12.66 12.17 13.18 0 0 0
2020-06-02 08:00:00 0 6942 13.21 13.05 13.64 0 0 0
2020-06-02 09:00:00 0 6942 13.42 12.79 14.11 0 0 0
2020-06-02 10:00:00 0 7080 13.07 12.52 14 0 0 0
2020-06-02 11:00:00 0 7226 14.31 13.72 15.43 0 0 0
2020-06-02 12:00:00 0 7138 16.37 15.52 16.98 0 0 0
2020-06-02 13:00:00 0 7226 15.35 14.21 16.11 0 0 0
2020-06-02 14:00:00 0.4 7226 12.75 11.87 14.32 0 0 0
2020-06-02 15:00:00 0 7070 13.41 12.22 14.76 0 0 0
2020-06-02 16:00:00 0.2 7040 14.87 14.48 15.27 0 0 0
2020-06-02 17:00:00 0 7166 15.89 15.14 16.89 0 0 0
2020-06-02 18:00:00 0 7254 17.38 15.75 19.03 0 0 0
2020-06-02 19:00:00 0 7216 16.89 15.76 20.13 0 0 0
2020-06-02 20:00:00 0 6962 15.53 14.68 16.66 0 0 0
2020-06-02 21:00:00 0 6864 13.81 13.29 14.49 0 0 0
2020-06-02 22:00:00 0 6854 12.81 12.27 13.25 0 0 0
2020-06-02 23:00:00 0 6834 11.44 10.8 12.05 0 0 0
2020-06-03 00:00:00 0 6826 10.73 10.28 11.1 0 0 0
2020-06-03 01:00:00 0 6816 10.52 10.07 10.83 0 0 0
2020-06-03 02:00:00 0 6796 10.68 10.4 10.88 0 0 0
2020-06-03 03:00:00 0 6806 10.37 9.61 10.74 0 0 0
2020-06-03 04:00:00 0 6786 8.77 8.27 9.46 0 0 0
2020-06-03 05:00:00 0 6786 8.4 8.11 8.59 0 0 0
2020-06-03 06:00:00 0 6766 8.14 7.9 8.44 0 0 0
2020-06-03 07:00:00 0 6826 8.16 7.9 8.62 0 0 0
2020-06-03 08:00:00 0 6864 9.87 8.79 10.88 0 0 0
2020-06-03 09:00:00 0 6922 12.27 11.02 13.54 0 0 0
2020-06-03 10:00:00 0 6972 14.54 13.58 15.28 0 0 0
2020-06-03 11:00:00 0.2 7010 16.25 15.58 16.89 0 0 0
2020-06-03 12:00:00 0 7010 17.8 17.18 18.23 0 0 0
2020-06-03 13:00:00 0 7108 19 18.08 20.28 0 0 0
2020-06-03 14:00:00 0 7226 20.08 19.66 20.79 0 0 0
2020-06-03 15:00:00 0 7060 19.45 18.88 19.84 0 0 0
2020-06-03 16:00:00 0 7226 20.72 18.88 22.87 0 0 0
2020-06-03 17:00:00 0 7246 22.23 20.99 22.82 0 0 0
2020-06-03 18:00:00 0 7246 22.78 22.17 23.34 0 0 0
2020-06-03 19:00:00 0 7236 22.35 21.72 23.03 0 0 0
2020-06-03 20:00:00 0 7040 21.5 20.9 22.01 0 0 0
2020-06-03 21:00:00 0 6864 19.52 18.25 20.97 0 0 0
2020-06-03 22:00:00 0 6844 17.2 16.42 18.17 0 0 0
2020-06-03 23:00:00 0 6826 15.63 15.24 16.32 0 0 0
2020-06-04 00:00:00 0 6816 14.91 13.56 15.94 0 0 0
2020-06-04 01:00:00 0 6806 12.66 12.01 13.32 0 0 0
2020-06-04 02:00:00 0 6806 12.01 11.58 12.79 0 0 0
2020-06-04 03:00:00 0 6796 11.76 11.29 12.38 0 0 0
2020-06-04 04:00:00 0 6796 12.26 11.56 12.73 0 0 0
2020-06-04 05:00:00 0 6796 11.69 10.36 12.22 0 0 0
2020-06-04 06:00:00 0 6786 10.16 9.64 10.36 0 0 0